This is the latest recevied weather packets stored in our database for station/object KC1HBM. If no packets are shown the sender has not sent any weather packets the latest 10 day(s).
| Time | Temp. | Humidity | Pressure | Rain* | Wind** | Luminosity | Snow |
|---|---|---|---|---|---|---|---|
| 1778155279 | 14.44° C | 73% | 1004.7 hPa | 0 mm | - | 243 W/m² | - |
| 1778154976 | 13.89° C | 75% | 1004.6 hPa | 0 mm | - | 225 W/m² | - |
| 1778154671 | 12.78° C | 80% | 1005 hPa | 0 mm | - | 206 W/m² | - |
| 1778154367 | 11.11° C | 84% | 1004.7 hPa | 0 mm | - | 191 W/m² | - |
| 1778154065 | 11.11° C | 86% | 1004.5 hPa | 0 mm | - | 42 W/m² | - |
| 1778153762 | 10° C | 89% | 1004.7 hPa | 0 mm | - | 92 W/m² | - |
| 1778153459 | 10.56° C | 90% | 1004.4 hPa | 0 mm | - | 37 W/m² | - |
| 1778153157 | 10.56° C | 91% | 1004.5 hPa | 0 mm | - | 52 W/m² | - |
| 1778152853 | 10.56° C | 93% | 1004.6 hPa | 0 mm | - | 62 W/m² | - |
| 1778152550 | 10° C | 94% | 1004.9 hPa | 0 mm | - | 51 W/m² | - |
| 1778152247 | 10° C | 94% | 1004.6 hPa | 0 mm | - | 24 W/m² | - |
| 1778151943 | 9.44° C | 96% | 1004.8 hPa | 0 mm | - | 61 W/m² | - |
| 1778151640 | 8.89° C | 96% | 1004.7 hPa | 0 mm | - | 16 W/m² | - |
| 1778151337 | 8.89° C | 96% | 1004.9 hPa | 0 mm | - | 12 W/m² | - |
| 1778151033 | 8.89° C | 96% | 1004.5 hPa | 0 mm | - | 31 W/m² | - |
| 1778150731 | 8.89° C | 96% | 1004.5 hPa | 0 mm | - | 24 W/m² | - |
| 1778150427 | 8.89° C | 97% | 1004.9 hPa | 0 mm | - | 13 W/m² | - |
| 1778150123 | 8.89° C | 97% | 1005.3 hPa | 0 mm | - | 6 W/m² | - |
| 1778149819 | 8.89° C | 98% | 1005 hPa | 0 mm | - | 12 W/m² | - |
| 1778149516 | 8.89° C | 98% | 1004.8 hPa | 0 mm | - | 9 W/m² | - |
| 1778149212 | 8.89° C | 98% | 1004.5 hPa | 0 mm | - | 5 W/m² | - |
| 1778148908 | 8.89° C | 98% | 1004.9 hPa | 0 mm | - | 5 W/m² | - |
| 1778148605 | 8.89° C | 97% | 1004.5 hPa | 0 mm | - | 5 W/m² | - |
| 1778148302 | 8.89° C | 97% | 1004.6 hPa | 0 mm | - | 2 W/m² | - |
| 1778148000 | 8.89° C | 98% | 1004.6 hPa | 0 mm | - | 1 W/m² | - |
* Rain latest hour (hover to see other rain measurements)
** Current wind speed in m/s (hover to see current wind gust speed)